createdAt,value
2023-01-12T00:01:42.247Z,100442.41
2023-01-12T00:04:09.024Z,100443.38
2023-01-12T00:06:35.467Z,100434.75
2023-01-12T00:09:03.957Z,100443.41
2023-01-12T00:11:30.871Z,100439.97
2023-01-12T00:13:58.033Z,100445.22
2023-01-12T00:16:51.560Z,100446.06
2023-01-12T00:19:20.362Z,100445.25
2023-01-12T00:22:00.260Z,100442.69
2023-01-12T00:24:29.663Z,100434.00
2023-01-12T00:26:58.141Z,100434.03
2023-01-12T00:29:25.372Z,100434.00
2023-01-12T00:31:56.658Z,100437.44
2023-01-12T00:34:23.577Z,100422.63
2023-01-12T00:36:50.001Z,100426.97
2023-01-12T00:39:17.287Z,100422.63
2023-01-12T00:42:03.331Z,100413.00
2023-01-12T00:44:49.317Z,100414.75
2023-01-12T00:47:17.017Z,100399.03
2023-01-12T00:49:43.729Z,100400.75
2023-01-12T00:52:21.624Z,100392.09
2023-01-12T00:54:55.653Z,100393.81
2023-01-12T00:57:22.067Z,100389.47
2023-01-12T00:59:48.500Z,100414.56
2023-01-12T01:02:15.173Z,100411.09
2023-01-12T01:04:41.666Z,100389.41
2023-01-12T01:07:08.151Z,100395.56
2023-01-12T01:09:34.575Z,100388.59
2023-01-12T01:12:01.039Z,100402.50
2023-01-12T01:14:27.467Z,100394.63
2023-01-12T01:16:53.899Z,100394.59
2023-01-12T01:19:20.396Z,100396.34
2023-01-12T01:21:47.343Z,100391.94
2023-01-12T01:24:14.591Z,100409.31
2023-01-12T01:26:42.226Z,100396.31
2023-01-12T01:29:09.555Z,100411.00
2023-01-12T01:31:36.234Z,100410.94
2023-01-12T01:34:03.065Z,100407.50
2023-01-12T01:36:29.499Z,100403.94
2023-01-12T01:38:56.015Z,100388.31
2023-01-12T01:41:25.979Z,100388.28
2023-01-12T01:44:01.297Z,100393.50
2023-01-12T01:46:37.261Z,100384.78
2023-01-12T01:49:29.665Z,100378.75
2023-01-12T01:52:12.633Z,100378.72
2023-01-12T01:55:11.033Z,100373.47
2023-01-12T01:58:02.735Z,100370.91
2023-01-12T02:00:29.590Z,100351.75
2023-01-12T02:02:57.607Z,100348.13
2023-01-12T02:05:27.017Z,100338.53
2023-01-12T02:07:53.743Z,100343.75
2023-01-12T02:10:21.164Z,100329.81
2023-01-12T02:13:06.298Z,100336.78
2023-01-12T02:16:03.793Z,100334.28
2023-01-12T02:18:51.019Z,100321.25
2023-01-12T02:21:42.666Z,100330.88
2023-01-12T02:24:25.632Z,100317.75
2023-01-12T02:27:01.244Z,100310.00
2023-01-12T02:30:00.107Z,100312.59
2023-01-12T02:32:51.479Z,100311.72
2023-01-12T02:35:36.145Z,100302.91
2023-01-12T02:38:21.440Z,100304.63
2023-01-12T02:41:18.645Z,100304.63
2023-01-12T02:43:45.735Z,100296.78
2023-01-12T02:46:23.956Z,100306.31
2023-01-12T02:49:06.019Z,100297.63
2023-01-12T02:51:40.705Z,100291.34
2023-01-12T02:54:12.134Z,100286.19
2023-01-12T02:56:44.203Z,100285.38
2023-01-12T02:59:18.083Z,100283.56
2023-01-12T03:01:48.783Z,100271.44
2023-01-12T03:04:17.756Z,100270.59
2023-01-12T03:06:45.977Z,100275.00
2023-01-12T03:09:15.875Z,100274.22
2023-01-12T03:11:43.479Z,100261.03
2023-01-12T03:14:12.925Z,100277.59
2023-01-12T03:16:40.337Z,100259.41
2023-01-12T03:19:18.003Z,100257.66
2023-01-12T03:21:57.621Z,100264.69
2023-01-12T03:24:28.723Z,100256.09
2023-01-12T03:27:02.062Z,100251.66
2023-01-12T03:29:59.176Z,100250.75
2023-01-12T03:32:26.036Z,100254.31
2023-01-12T03:34:52.793Z,100246.50
2023-01-12T03:37:28.205Z,100239.56
2023-01-12T03:40:01.745Z,100232.59
2023-01-12T03:42:31.122Z,100242.19
2023-01-12T03:45:22.893Z,100230.00
2023-01-12T03:47:55.944Z,100240.44
2023-01-12T03:50:30.991Z,100225.63
2023-01-12T03:53:01.645Z,100218.63
2023-01-12T03:55:30.841Z,100215.97
2023-01-12T03:57:57.925Z,100208.16
2023-01-12T04:00:27.079Z,100206.50
2023-01-12T04:03:03.925Z,100209.81
2023-01-12T04:05:30.420Z,100194.28
2023-01-12T04:07:56.849Z,100197.81
2023-01-12T04:10:23.286Z,100196.91
2023-01-12T04:12:49.712Z,100195.09
2023-01-12T04:15:16.206Z,100188.94
2023-01-12T04:17:42.660Z,100185.34
2023-01-12T04:20:09.843Z,100186.16
2023-01-12T04:22:45.572Z,100181.72
2023-01-12T04:25:17.529Z,100182.47
2023-01-12T04:28:02.230Z,100179.97
2023-01-12T04:30:30.798Z,100185.16
2023-01-12T04:32:58.303Z,100191.22
2023-01-12T04:35:25.283Z,100184.22
2023-01-12T04:37:52.367Z,100189.59
2023-01-12T04:40:19.624Z,100174.00
2023-01-12T04:43:11.947Z,100154.88
2023-01-12T04:45:41.489Z,100157.53
2023-01-12T04:48:11.274Z,100141.94
2023-01-12T04:50:39.302Z,100144.53
2023-01-12T04:53:07.804Z,100135.94
2023-01-12T04:55:36.865Z,100125.66
2023-01-12T04:58:03.882Z,100124.84
2023-01-12T05:00:30.843Z,100119.56
2023-01-12T05:02:59.419Z,100123.09
2023-01-12T05:05:27.010Z,100117.88
2023-01-12T05:08:11.934Z,100123.97
2023-01-12T05:10:38.368Z,100112.69
2023-01-12T05:13:05.358Z,100099.66
2023-01-12T05:15:31.837Z,100105.78
2023-01-12T05:17:58.253Z,100096.22
2023-01-12T05:20:24.718Z,100098.00
2023-01-12T05:22:52.594Z,100092.78
2023-01-12T05:25:19.033Z,100085.78
2023-01-12T05:27:45.592Z,100087.56
2023-01-12T05:30:12.318Z,100090.16
2023-01-12T05:32:40.306Z,100076.25
2023-01-12T05:35:07.845Z,100083.22
2023-01-12T05:37:34.820Z,100082.34
2023-01-12T05:40:01.484Z,100070.16
2023-01-12T05:42:47.403Z,100062.31
2023-01-12T05:45:13.896Z,100051.06
2023-01-12T05:47:40.303Z,100053.78
2023-01-12T05:50:07.161Z,100038.13
2023-01-12T05:52:33.612Z,100023.38
2023-01-12T05:55:00.011Z,100034.75
2023-01-12T05:57:26.488Z,100021.75
2023-01-12T05:59:52.909Z,100020.00
2023-01-12T06:02:21.552Z,99993.09
2023-01-12T06:04:48.577Z,99997.47
2023-01-12T06:07:16.380Z,100026.19
2023-01-12T06:09:42.941Z,100011.41
2023-01-12T06:12:29.871Z,99995.75
2023-01-12T06:14:56.372Z,100021.00
2023-01-12T06:17:22.846Z,100023.66
2023-01-12T06:19:49.265Z,99994.94
2023-01-12T06:22:15.745Z,99971.50
2023-01-12T06:24:42.167Z,100008.94
2023-01-12T06:27:08.937Z,100025.41
2023-01-12T06:29:35.396Z,100024.53
2023-01-12T06:32:01.889Z,100001.97
2023-01-12T06:34:28.413Z,99990.66
2023-01-12T06:36:54.887Z,99998.50
2023-01-12T06:39:21.336Z,99987.31
2023-01-12T06:42:06.467Z,100001.19
2023-01-12T06:44:32.863Z,99989.88
2023-01-12T06:46:59.346Z,99982.91
2023-01-12T06:49:25.756Z,99987.22
2023-01-12T06:51:52.219Z,99982.06
2023-01-12T06:54:19.076Z,99985.56
2023-01-12T06:56:45.736Z,99984.66
2023-01-12T06:59:12.741Z,99980.28
2023-01-12T07:01:40.603Z,99984.63
2023-01-12T07:04:08.042Z,99968.09
2023-01-12T07:06:35.006Z,99973.22
2023-01-12T07:09:01.457Z,99966.22
2023-01-12T07:11:27.901Z,99967.06
2023-01-12T07:13:55.697Z,99974.88
2023-01-12T07:16:22.239Z,99986.91
2023-01-12T07:18:49.557Z,99996.41
2023-01-12T07:21:18.147Z,99964.97
2023-01-12T07:23:44.719Z,99958.03
2023-01-12T07:26:12.038Z,99978.81
2023-01-12T07:28:38.654Z,99979.59
2023-01-12T07:31:06.682Z,99970.81
2023-01-12T07:33:34.433Z,99957.75
2023-01-12T07:36:02.165Z,99965.47
2023-01-12T07:38:29.670Z,99972.38
2023-01-12T07:41:00.722Z,99979.28
2023-01-12T07:43:27.697Z,99991.34
2023-01-12T07:45:58.067Z,99979.19
2023-01-12T07:48:26.533Z,99970.41
2023-01-12T07:50:53.834Z,99974.63
2023-01-12T07:53:20.684Z,99967.84
2023-01-12T07:55:47.152Z,99983.44
2023-01-12T07:58:13.559Z,99946.97
2023-01-12T08:00:40.077Z,99958.28
2023-01-12T08:03:11.468Z,99987.84
2023-01-12T08:05:38.996Z,99972.69
2023-01-12T08:08:06.477Z,99974.34
2023-01-12T08:10:33.061Z,99963.97
2023-01-12T08:12:59.558Z,99981.34
2023-01-12T08:15:27.897Z,99981.34
2023-01-12T08:18:06.123Z,99971.00
2023-01-12T08:20:36.094Z,99972.53
2023-01-12T08:23:13.744Z,99976.00
2023-01-12T08:25:44.832Z,99983.84
2023-01-12T08:28:19.257Z,99966.38
2023-01-12T08:30:48.821Z,99981.09
2023-01-12T08:33:15.980Z,99969.69
2023-01-12T08:35:44.052Z,99968.78
2023-01-12T08:38:10.532Z,99980.94
2023-01-12T08:40:55.694Z,99985.31
2023-01-12T08:43:45.327Z,99982.56
2023-01-12T08:46:12.088Z,99976.41
2023-01-12T08:48:39.111Z,99983.25
2023-01-12T08:51:07.981Z,99980.69
2023-01-12T08:53:34.983Z,99984.16
2023-01-12T08:56:01.439Z,99978.88
2023-01-12T08:58:27.913Z,99985.81
2023-01-12T09:00:54.571Z,99996.97
2023-01-12T09:03:21.097Z,99989.94
2023-01-12T09:05:48.642Z,99995.13
2023-01-12T09:08:15.276Z,99992.50
2023-01-12T09:10:41.756Z,100000.25
2023-01-12T09:13:08.630Z,99985.53
2023-01-12T09:15:35.136Z,99990.81
2023-01-12T09:18:01.651Z,99996.03
2023-01-12T09:20:28.132Z,99996.03
2023-01-12T09:22:54.563Z,99984.63
2023-01-12T09:25:21.021Z,100006.28
2023-01-12T09:27:47.506Z,99997.50
2023-01-12T09:30:14.178Z,99987.09
2023-01-12T09:32:40.648Z,99997.50
2023-01-12T09:35:07.467Z,100005.34
2023-01-12T09:37:33.906Z,100009.63
2023-01-12T09:40:00.549Z,100007.81
2023-01-12T09:42:45.651Z,99999.94
2023-01-12T09:45:41.901Z,100016.47
2023-01-12T09:48:12.010Z,100011.25
2023-01-12T09:50:46.356Z,100020.72
2023-01-12T09:53:18.544Z,100037.19
2023-01-12T09:55:56.139Z,100023.09
2023-01-12T09:58:49.901Z,100017.88
2023-01-12T10:01:28.814Z,100022.97
2023-01-12T10:03:58.745Z,100024.66
2023-01-12T10:06:25.398Z,100036.75
2023-01-12T10:08:55.755Z,100042.06
2023-01-12T10:11:47.470Z,100031.53
2023-01-12T10:14:26.246Z,100028.94
2023-01-12T10:17:17.743Z,100046.31
2023-01-12T10:20:02.932Z,100048.75
2023-01-12T10:22:39.741Z,100047.81
2023-01-12T10:25:18.390Z,100043.53
2023-01-12T10:27:46.729Z,100046.09
2023-01-12T10:30:19.733Z,100040.13
2023-01-12T10:32:46.655Z,100040.72
2023-01-12T10:35:18.770Z,100039.78
2023-01-12T10:37:56.142Z,100046.03
2023-01-12T10:40:31.777Z,100041.72
2023-01-12T10:43:20.440Z,100035.66
2023-01-12T10:46:04.718Z,100026.81
2023-01-12T10:48:31.951Z,100042.44
2023-01-12T10:51:02.752Z,100040.63
2023-01-12T10:53:54.514Z,100029.38
2023-01-12T10:56:53.273Z,100038.88
2023-01-12T10:59:23.089Z,100043.13
2023-01-12T11:01:52.700Z,100037.75
2023-01-12T11:04:22.832Z,100040.38
2023-01-12T11:07:15.716Z,100041.13
2023-01-12T11:09:43.841Z,100037.66
2023-01-12T11:12:31.615Z,100031.66
2023-01-12T11:15:14.997Z,100029.88
2023-01-12T11:18:02.943Z,100038.34
2023-01-12T11:20:29.341Z,100028.06
2023-01-12T11:23:01.103Z,100049.03
2023-01-12T11:25:32.858Z,100041.19
2023-01-12T11:28:18.725Z,100039.38
2023-01-12T11:31:20.819Z,100041.13
2023-01-12T11:33:52.298Z,100038.44
2023-01-12T11:36:24.146Z,100030.72
2023-01-12T11:39:15.674Z,100045.31
2023-01-12T11:42:13.021Z,100045.25
2023-01-12T11:45:05.123Z,100050.53
2023-01-12T11:47:41.734Z,100031.41
2023-01-12T11:50:20.422Z,100028.91
2023-01-12T11:52:47.064Z,100034.09
2023-01-12T11:55:16.794Z,100035.03
2023-01-12T11:58:02.254Z,100026.41
2023-01-12T12:00:31.693Z,100031.44
2023-01-12T12:03:21.318Z,100023.38
2023-01-12T12:06:31.034Z,100021.75
2023-01-12T12:09:16.060Z,100025.13
2023-01-12T12:11:54.734Z,100022.31
2023-01-12T12:14:36.676Z,100018.69
2023-01-12T12:17:34.833Z,100012.63
2023-01-12T12:20:21.613Z,100016.13
2023-01-12T12:23:02.628Z,100011.81
2023-01-12T12:26:08.230Z,100009.94
2023-01-12T12:28:53.262Z,100002.13
2023-01-12T12:31:27.536Z,99994.34
2023-01-12T12:34:10.779Z,99998.66
2023-01-12T12:36:47.549Z,100006.50
2023-01-12T12:39:21.153Z,100003.94
2023-01-12T12:42:12.159Z,99996.09
2023-01-12T12:45:16.654Z,99998.66
2023-01-12T12:47:54.452Z,99998.66
2023-01-12T12:50:55.382Z,100001.28
2023-01-12T12:53:27.457Z,99990.81
2023-01-12T12:55:58.868Z,100004.91
2023-01-12T12:58:38.971Z,99995.34
2023-01-12T13:01:23.688Z,99980.47
2023-01-12T13:03:55.640Z,99993.50
2023-01-12T13:06:30.188Z,99977.91
2023-01-12T13:09:02.162Z,99971.84
2023-01-12T13:11:47.279Z,99979.72
2023-01-12T13:14:39.124Z,99992.72
2023-01-12T13:17:25.745Z,99966.44
2023-01-12T13:20:06.204Z,99984.09
2023-01-12T13:22:49.726Z,99989.25
2023-01-12T13:25:16.155Z,99985.97
2023-01-12T13:28:00.524Z,99985.00
2023-01-12T13:30:30.061Z,99985.00
2023-01-12T13:33:15.177Z,99966.69
2023-01-12T13:35:44.508Z,99961.56
2023-01-12T13:38:24.557Z,99975.59
2023-01-12T13:40:55.554Z,99985.09
2023-01-12T13:43:34.082Z,99976.34
2023-01-12T13:46:04.331Z,99974.69
2023-01-12T13:48:34.307Z,99984.34
2023-01-12T13:51:25.619Z,99986.88
2023-01-12T13:54:06.560Z,99985.06
2023-01-12T13:56:33.358Z,99973.75
2023-01-12T13:59:02.097Z,99974.69
2023-01-12T14:01:39.547Z,99985.19
2023-01-12T14:04:19.919Z,99972.94
2023-01-12T14:07:05.129Z,99987.78
2023-01-12T14:09:44.801Z,99967.88
2023-01-12T14:12:33.631Z,99984.28
2023-01-12T14:15:42.187Z,99976.44
2023-01-12T14:18:17.270Z,99963.50
2023-01-12T14:20:52.145Z,99980.00
2023-01-12T14:23:28.980Z,99963.50
2023-01-12T14:26:10.721Z,99981.75
2023-01-12T14:28:39.536Z,99974.91
2023-01-12T14:31:08.253Z,99979.19
2023-01-12T14:33:37.618Z,99965.31
2023-01-12T14:36:13.047Z,99962.63
2023-01-12T14:38:41.596Z,99961.03
2023-01-12T14:41:31.229Z,99963.59
2023-01-12T14:44:16.211Z,99960.06
2023-01-12T14:46:52.131Z,99963.31
2023-01-12T14:49:22.224Z,99959.75
2023-01-12T14:51:57.329Z,99960.75
2023-01-12T14:54:30.009Z,99952.91
2023-01-12T14:57:08.004Z,99953.72
2023-01-12T14:59:48.454Z,99951.06
2023-01-12T15:02:14.849Z,99952.81
2023-01-12T15:04:56.854Z,99941.56
2023-01-12T15:07:25.056Z,99938.72
2023-01-12T15:10:05.152Z,99938.03
2023-01-12T15:12:31.603Z,99937.28
2023-01-12T15:15:27.758Z,99947.75
2023-01-12T15:18:13.995Z,99928.59
2023-01-12T15:21:02.548Z,99930.28
2023-01-12T15:23:50.068Z,99930.28
2023-01-12T15:26:16.969Z,99939.84
2023-01-12T15:28:44.739Z,99924.09
2023-01-12T15:31:34.453Z,99918.91
2023-01-12T15:34:01.787Z,99927.69
2023-01-12T15:36:28.696Z,99923.34
2023-01-12T15:38:55.372Z,99916.38
2023-01-12T15:41:46.302Z,99922.50
2023-01-12T15:44:20.445Z,99937.28
2023-01-12T15:46:47.737Z,99925.91
2023-01-12T15:49:14.916Z,99930.22
2023-01-12T15:51:48.735Z,99921.59
2023-01-12T15:54:18.009Z,99923.41
2023-01-12T15:56:44.990Z,99930.41
2023-01-12T15:59:11.471Z,99926.88
2023-01-12T16:01:42.719Z,99917.22
2023-01-12T16:04:42.158Z,99917.22
2023-01-12T16:07:08.695Z,99911.28
2023-01-12T16:09:35.286Z,99929.66
2023-01-12T16:12:01.850Z,99913.00
2023-01-12T16:14:28.289Z,99914.72
2023-01-12T16:16:54.821Z,99912.09
2023-01-12T16:19:22.347Z,99920.03
2023-01-12T16:21:48.929Z,99901.78
2023-01-12T16:24:15.658Z,99906.16
2023-01-12T16:26:42.201Z,99905.09
2023-01-12T16:29:08.910Z,99909.47
2023-01-12T16:31:38.101Z,99906.13
2023-01-12T16:34:05.740Z,99906.06
2023-01-12T16:36:32.208Z,99886.84
2023-01-12T16:38:58.711Z,99891.19
2023-01-12T16:41:25.420Z,99897.25
2023-01-12T16:43:52.132Z,99894.59
2023-01-12T16:46:18.795Z,99893.75
2023-01-12T16:48:45.549Z,99887.59
2023-01-12T16:51:17.165Z,99880.72
2023-01-12T16:53:44.331Z,99889.34
2023-01-12T16:56:12.531Z,99878.72
2023-01-12T16:58:39.263Z,99883.84
2023-01-12T17:01:13.941Z,99884.69
2023-01-12T17:03:43.385Z,99889.03
2023-01-12T17:06:15.365Z,99872.59
2023-01-12T17:08:42.346Z,99877.75
2023-01-12T17:11:11.303Z,99895.00
2023-01-12T17:13:38.652Z,99867.88
2023-01-12T17:16:12.392Z,99884.09
2023-01-12T17:18:39.398Z,99882.34
2023-01-12T17:21:09.352Z,99871.28
2023-01-12T17:23:36.108Z,99873.81
2023-01-12T17:26:03.768Z,99879.06
2023-01-12T17:28:30.604Z,99867.75
2023-01-12T17:30:57.749Z,99876.63
2023-01-12T17:33:24.334Z,99874.75
2023-01-12T17:35:50.823Z,99873.03
2023-01-12T17:38:17.313Z,99875.84
2023-01-12T17:40:43.822Z,99877.53
2023-01-12T17:43:14.608Z,99886.13
2023-01-12T17:45:42.784Z,99873.13
2023-01-12T17:48:13.052Z,99879.34
2023-01-12T17:50:40.510Z,99870.78
2023-01-12T17:53:09.362Z,99877.03
2023-01-12T17:55:43.587Z,99868.91
2023-01-12T17:58:14.459Z,99871.63
2023-01-12T18:00:40.931Z,99868.31
2023-01-12T18:03:07.560Z,99876.13
2023-01-12T18:05:34.013Z,99881.22
2023-01-12T18:08:00.446Z,99879.31
2023-01-12T18:10:27.180Z,99872.25
2023-01-12T18:12:53.647Z,99878.34
2023-01-12T18:15:20.206Z,99867.88
2023-01-12T18:17:46.676Z,99878.44
2023-01-12T18:20:13.209Z,99882.59
2023-01-12T18:22:39.732Z,99863.56
2023-01-12T18:25:09.333Z,99875.84
2023-01-12T18:27:35.799Z,99869.69
2023-01-12T18:30:02.331Z,99876.75
2023-01-12T18:32:28.870Z,99877.75
2023-01-12T18:34:56.761Z,99871.63
2023-01-12T18:37:23.189Z,99873.31
2023-01-12T18:39:50.066Z,99878.69
2023-01-12T18:42:35.243Z,99864.00
2023-01-12T18:45:04.212Z,99877.97
2023-01-12T18:47:49.398Z,99876.28
2023-01-12T18:50:34.833Z,99872.88
2023-01-12T18:53:19.816Z,99871.22
2023-01-12T18:55:47.880Z,99875.38
2023-01-12T18:58:14.286Z,99876.34
2023-01-12T19:00:40.775Z,99877.41
2023-01-12T19:03:07.491Z,99883.50
2023-01-12T19:05:46.341Z,99870.25
2023-01-12T19:08:31.465Z,99876.28
2023-01-12T19:11:07.463Z,99863.28
2023-01-12T19:13:52.430Z,99865.88
2023-01-12T19:16:37.293Z,99867.69
2023-01-12T19:19:03.854Z,99871.06
2023-01-12T19:21:49.057Z,99867.53
2023-01-12T19:24:34.516Z,99870.16
2023-01-12T19:27:19.601Z,99864.97
2023-01-12T19:29:46.785Z,99866.75
2023-01-12T19:32:14.768Z,99873.78
2023-01-12T19:34:41.593Z,99862.47
2023-01-12T19:37:08.079Z,99865.75
2023-01-12T19:40:00.246Z,99853.50
2023-01-12T19:42:47.103Z,99858.78
2023-01-12T19:45:14.103Z,99849.28
2023-01-12T19:47:40.695Z,99857.28
2023-01-12T19:50:08.838Z,99848.66
2023-01-12T19:52:39.604Z,99850.41
2023-01-12T19:55:08.785Z,99829.22
2023-01-12T19:57:36.449Z,99831.81
2023-01-12T20:00:07.074Z,99829.38
2023-01-12T20:02:34.164Z,99827.81
2023-01-12T20:05:00.819Z,99827.00
2023-01-12T20:07:27.305Z,99821.03
2023-01-12T20:09:53.744Z,99824.56
2023-01-12T20:12:20.206Z,99818.47
2023-01-12T20:14:46.626Z,99813.25
2023-01-12T20:17:13.068Z,99814.22
2023-01-12T20:19:39.695Z,99812.56
2023-01-12T20:22:06.115Z,99818.66
2023-01-12T20:24:32.583Z,99819.38
2023-01-12T20:26:59.077Z,99822.84
2023-01-12T20:29:25.590Z,99812.22
2023-01-12T20:31:52.827Z,99817.28
2023-01-12T20:34:20.718Z,99816.50
2023-01-12T20:36:47.886Z,99817.34
2023-01-12T20:39:16.115Z,99826.88
2023-01-12T20:41:42.651Z,99815.63
2023-01-12T20:44:15.028Z,99824.19
2023-01-12T20:46:44.214Z,99831.88
2023-01-12T20:49:11.224Z,99824.00
2023-01-12T20:51:38.350Z,99822.28
2023-01-12T20:54:05.920Z,99824.19
2023-01-12T20:56:32.558Z,99826.81
2023-01-12T20:59:00.491Z,99824.19
2023-01-12T21:01:27.365Z,99818.13
2023-01-12T21:03:53.932Z,99821.59
2023-01-12T21:06:21.258Z,99819.88
2023-01-12T21:08:47.733Z,99836.53
2023-01-12T21:11:16.845Z,99825.28
2023-01-12T21:13:43.617Z,99828.81
2023-01-12T21:16:13.140Z,99819.25
2023-01-12T21:18:39.667Z,99824.47
2023-01-12T21:21:06.447Z,99800.06
2023-01-12T21:23:32.931Z,99806.81
2023-01-12T21:25:59.790Z,99813.75
2023-01-12T21:28:27.548Z,99820.63
2023-01-12T21:30:59.371Z,99811.03
2023-01-12T21:33:26.358Z,99821.34
2023-01-12T21:35:57.014Z,99814.38
2023-01-12T21:38:25.164Z,99823.91
2023-01-12T21:40:51.707Z,99824.00
2023-01-12T21:43:19.527Z,99822.22
2023-01-12T21:45:48.839Z,99819.63
2023-01-12T21:48:17.413Z,99819.66
2023-01-12T21:50:43.996Z,99807.38
2023-01-12T21:53:15.584Z,99812.59
2023-01-12T21:55:42.160Z,99812.63
2023-01-12T21:58:08.622Z,99821.19
2023-01-12T22:00:35.645Z,99815.06
2023-01-12T22:03:02.065Z,99816.72
2023-01-12T22:05:28.520Z,99813.25
2023-01-12T22:07:55.367Z,99809.88
2023-01-12T22:10:23.923Z,99812.56
2023-01-12T22:12:56.852Z,99805.69
2023-01-12T22:15:24.842Z,99813.53
2023-01-12T22:17:52.605Z,99817.63
2023-01-12T22:20:19.157Z,99814.25
2023-01-12T22:22:45.623Z,99809.13
2023-01-12T22:25:14.445Z,99805.56
2023-01-12T22:27:43.796Z,99801.19
2023-01-12T22:30:16.710Z,99805.31
2023-01-12T22:32:44.337Z,99808.94
2023-01-12T22:35:11.608Z,99799.28
2023-01-12T22:37:39.228Z,99797.47
2023-01-12T22:40:08.902Z,99799.28
2023-01-12T22:42:53.856Z,99788.06
2023-01-12T22:45:20.360Z,99789.75
2023-01-12T22:47:54.726Z,99790.66
2023-01-12T22:50:22.282Z,99795.91
2023-01-12T22:52:53.008Z,99792.31
2023-01-12T22:55:23.763Z,99782.59
2023-01-12T22:57:50.581Z,99790.25
2023-01-12T23:00:19.097Z,99783.13
2023-01-12T23:03:01.761Z,99782.97
2023-01-12T23:05:37.054Z,99792.66
2023-01-12T23:08:05.497Z,99780.63
2023-01-12T23:10:32.653Z,99772.97
2023-01-12T23:13:11.686Z,99774.88
2023-01-12T23:15:39.141Z,99775.75
2023-01-12T23:18:06.696Z,99774.06
2023-01-12T23:20:35.571Z,99764.28
2023-01-12T23:23:06.616Z,99766.94
2023-01-12T23:25:34.348Z,99763.38
2023-01-12T23:28:01.075Z,99760.81
2023-01-12T23:30:30.507Z,99758.94
2023-01-12T23:33:03.850Z,99761.72
2023-01-12T23:35:35.407Z,99763.41
2023-01-12T23:38:02.282Z,99761.47
2023-01-12T23:40:28.754Z,99758.84
2023-01-12T23:42:55.443Z,99762.19
2023-01-12T23:45:21.962Z,99765.63
2023-01-12T23:47:48.350Z,99772.56
2023-01-12T23:50:14.912Z,99774.16
2023-01-12T23:52:41.339Z,99770.75
2023-01-12T23:55:08.522Z,99766.56
2023-01-12T23:57:35.472Z,99774.34
